Time;durP1;ratioP1;P1;durP2;ratioP2;P2;SDS_P1;SDS_P2;PMS_P1;PMS_P2;Temp;Humidity;BMP_temperature;BMP_pressure;BME280_temperature;BME280_humidity;BME280_pressure;Samples;Min_cycle;Max_cycle;Signal;HPM_P1;HPM_P2
2023/12/20 00:01:46;;;;;;;4.53;3.85;;;5.90;99.90;;;;;;4949038;29;20034;-50
2023/12/20 00:04:12;;;;;;;3.90;3.60;;;5.80;99.90;;;;;;4948995;29;20047;-56
2023/12/20 00:06:37;;;;;;;5.00;4.50;;;5.90;99.90;;;;;;4949649;28;20028;-54
2023/12/20 00:09:03;;;;;;;3.63;3.33;;;5.70;99.90;;;;;;4949395;28;20028;-54
2023/12/20 00:11:28;;;;;;;4.82;3.70;;;5.70;99.90;;;;;;4933805;28;20518;-54
2023/12/20 00:13:54;;;;;;;4.13;3.72;;;6.30;99.90;;;;;;4957153;28;20038;-53
2023/12/20 00:16:19;;;;;;;4.38;3.60;;;5.80;99.90;;;;;;4948795;29;20027;-55
2023/12/20 00:18:45;;;;;;;4.35;3.95;;;5.80;99.90;;;;;;4949138;29;20050;-52
2023/12/20 00:21:10;;;;;;;3.92;3.30;;;5.90;99.90;;;;;;4948233;28;20540;-54
2023/12/20 00:23:36;;;;;;;4.43;4.03;;;5.90;99.90;;;;;;4934968;29;20031;-51
2023/12/20 00:26:01;;;;;;;3.85;3.55;;;5.80;99.90;;;;;;4961086;28;20027;-52
2023/12/20 00:28:27;;;;;;;4.50;3.70;;;5.80;99.90;;;;;;4967880;28;20023;-58
2023/12/20 00:30:52;;;;;;;3.53;3.22;;;5.80;99.90;;;;;;4990686;22;20046;-43
2023/12/20 00:33:18;;;;;;;3.58;3.28;;;5.70;99.90;;;;;;4988807;28;20502;-44
2023/12/20 00:35:44;;;;;;;3.85;3.45;;;5.70;99.90;;;;;;4973884;28;20098;-43
2023/12/20 00:38:11;;;;;;;3.70;3.40;;;5.70;99.90;;;;;;4969740;28;20111;-43
2023/12/20 00:40:36;;;;;;;3.67;3.38;;;5.60;99.90;;;;;;4950811;29;20035;-44
2023/12/20 00:43:02;;;;;;;5.13;3.63;;;5.70;99.90;;;;;;4951093;29;20027;-46
2023/12/20 00:45:27;;;;;;;5.97;3.97;;;5.70;99.90;;;;;;4951282;29;20047;-45
2023/12/20 00:47:53;;;;;;;6.15;4.15;;;5.80;99.90;;;;;;4934431;29;20110;-44
2023/12/20 00:50:18;;;;;;;6.20;4.10;;;5.70;99.90;;;;;;4951296;29;20038;-43
2023/12/20 00:52:44;;;;;;;5.03;3.45;;;5.70;99.90;;;;;;4950885;29;20440;-48
2023/12/20 00:55:09;;;;;;;3.90;3.50;;;5.60;99.90;;;;;;4950990;29;20031;-44
2023/12/20 00:57:35;;;;;;;4.38;3.97;;;5.70;99.90;;;;;;4951267;29;20035;-47
2023/12/20 01:00:00;;;;;;;6.53;4.03;;;5.60;99.90;;;;;;4950870;29;20517;-40
2023/12/20 01:02:26;;;;;;;4.03;3.58;;;5.70;99.90;;;;;;4950310;29;20156;-43
2023/12/20 01:04:51;;;;;;;4.47;3.80;;;5.70;99.90;;;;;;4934413;29;20027;-43
2023/12/20 01:07:17;;;;;;;5.00;3.33;;;5.80;99.90;;;;;;4951572;29;20391;-41
2023/12/20 01:09:42;;;;;;;3.90;3.60;;;5.80;99.90;;;;;;4951375;29;20483;-42
2023/12/20 01:12:08;;;;;;;47.08;22.77;;;5.70;99.90;;;;;;4951824;29;20027;-48
2023/12/20 01:14:34;;;;;;;30.70;17.17;;;5.70;99.90;;;;;;4950835;29;20443;-39
2023/12/20 01:16:59;;;;;;;4.47;3.53;;;5.80;99.90;;;;;;4950914;29;20097;-46
2023/12/20 01:19:25;;;;;;;3.42;3.13;;;5.90;99.90;;;;;;4950432;29;20035;-45
2023/12/20 01:21:50;;;;;;;2.70;2.50;;;5.80;99.90;;;;;;4949584;29;20035;-44
2023/12/20 01:24:16;;;;;;;2.88;2.67;;;5.80;99.90;;;;;;4950510;29;20081;-43
2023/12/20 01:26:42;;;;;;;2.85;2.53;;;5.90;99.90;;;;;;4952675;29;20657;-44
2023/12/20 01:29:07;;;;;;;3.22;2.78;;;5.80;99.90;;;;;;4953909;29;20371;-45
2023/12/20 01:31:33;;;;;;;2.70;2.50;;;5.70;99.90;;;;;;4953340;29;20063;-45
2023/12/20 01:33:58;;;;;;;2.25;2.15;;;5.70;99.90;;;;;;4953556;29;20393;-42
2023/12/20 01:36:24;;;;;;;4.68;2.88;;;5.70;99.90;;;;;;4953809;29;20077;-47
2023/12/20 01:38:49;;;;;;;2.97;2.28;;;6.00;99.90;;;;;;4953829;29;20027;-44
2023/12/20 01:41:15;;;;;;;2.17;2.08;;;5.60;99.90;;;;;;4953584;29;20039;-47
2023/12/20 01:43:40;;;;;;;2.50;2.30;;;5.60;99.90;;;;;;4954050;29;20105;-43
2023/12/20 01:46:06;;;;;;;2.50;2.30;;;5.60;99.90;;;;;;4953980;29;20035;-43
2023/12/20 01:48:32;;;;;;;3.53;2.22;;;5.60;99.90;;;;;;4953949;29;20077;-43
2023/12/20 01:50:59;;;;;;;2.60;2.40;;;5.60;99.90;;;;;;4953915;29;20032;-43
2023/12/20 01:53:26;;;;;;;3.95;2.70;;;5.60;99.90;;;;;;4953630;29;20024;-47
2023/12/20 01:55:54;;;;;;;3.30;2.13;;;5.60;99.90;;;;;;4953607;29;20024;-44
2023/12/20 01:58:19;;;;;;;2.60;2.40;;;5.60;99.90;;;;;;4936301;28;20475;-44
2023/12/20 02:00:45;;;;;;;4.00;2.70;;;5.70;99.90;;;;;;4953240;29;20046;-45
2023/12/20 02:03:11;;;;;;;4.45;2.70;;;5.60;99.90;;;;;;4953574;29;20031;-46
2023/12/20 02:05:38;;;;;;;2.70;2.50;;;5.70;99.90;;;;;;4953408;29;20035;-44
2023/12/20 02:08:05;;;;;;;2.63;2.42;;;5.80;99.90;;;;;;4953642;29;20023;-45
2023/12/20 02:10:31;;;;;;;2.20;2.10;;;5.60;99.90;;;;;;4953157;29;20031;-44
2023/12/20 02:12:56;;;;;;;2.03;1.92;;;5.60;99.90;;;;;;4953519;29;20122;-44
2023/12/20 02:15:22;;;;;;;2.88;2.13;;;5.60;99.90;;;;;;4952188;29;20027;-43
2023/12/20 02:17:48;;;;;;;2.67;2.47;;;5.60;99.90;;;;;;4953496;29;20057;-48
2023/12/20 02:20:14;;;;;;;2.30;2.10;;;5.60;99.90;;;;;;4936403;29;20062;-45
2023/12/20 02:22:40;;;;;;;2.92;2.13;;;5.60;99.90;;;;;;4953235;29;20058;-47
2023/12/20 02:25:05;;;;;;;2.72;2.38;;;5.70;99.90;;;;;;4953211;29;20032;-47
2023/12/20 02:27:31;;;;;;;2.00;1.90;;;5.70;99.90;;;;;;4953210;29;20109;-49
2023/12/20 02:29:57;;;;;;;2.72;2.05;;;5.80;99.90;;;;;;4953187;29;20038;-44
2023/12/20 02:32:25;;;;;;;2.65;2.20;;;5.80;99.90;;;;;;4953108;29;20398;-44
2023/12/20 02:34:51;;;;;;;3.10;2.72;;;5.70;99.90;;;;;;4952965;29;20582;-47
2023/12/20 02:37:17;;;;;;;2.38;2.13;;;5.60;99.90;;;;;;4952591;29;20173;-41
2023/12/20 02:39:42;;;;;;;2.35;2.15;;;5.90;99.90;;;;;;4952569;29;20084;-46
2023/12/20 02:42:08;;;;;;;2.13;2.03;;;5.70;99.90;;;;;;4952609;29;20386;-44
2023/12/20 02:44:33;;;;;;;2.30;2.10;;;5.70;99.90;;;;;;4952915;29;20038;-47
2023/12/20 02:46:59;;;;;;;2.17;2.08;;;5.70;99.90;;;;;;4952894;29;20030;-45
2023/12/20 02:49:24;;;;;;;2.03;1.90;;;5.70;99.90;;;;;;4952542;29;20038;-42
2023/12/20 02:51:50;;;;;;;2.28;2.05;;;5.70;99.90;;;;;;4952475;29;20386;-44
2023/12/20 02:54:16;;;;;;;2.40;2.20;;;5.70;99.90;;;;;;4952549;29;20081;-46
2023/12/20 02:56:41;;;;;;;2.25;2.10;;;5.70;99.90;;;;;;4952873;29;20094;-44
2023/12/20 02:59:08;;;;;;;2.92;2.15;;;5.70;99.90;;;;;;4952644;29;20102;-43
2023/12/20 03:01:34;;;;;;;2.75;2.05;;;5.70;99.90;;;;;;4952290;29;20035;-44
2023/12/20 03:03:59;;;;;;;1.73;1.63;;;5.70;99.90;;;;;;4952240;29;20038;-44
2023/12/20 03:06:25;;;;;;;2.30;2.10;;;5.70;99.90;;;;;;4952701;29;20038;-45
2023/12/20 03:08:51;;;;;;;2.47;2.28;;;5.70;99.90;;;;;;4952520;29;20080;-45
2023/12/20 03:11:16;;;;;;;1.98;1.88;;;5.60;99.90;;;;;;4952056;29;20035;-43
2023/12/20 03:13:42;;;;;;;2.10;1.90;;;5.60;99.90;;;;;;4952363;29;20118;-44
2023/12/20 03:16:11;;;;;;;2.25;2.05;;;5.60;99.90;;;;;;4952175;29;20058;-44
2023/12/20 03:18:37;;;;;;;2.80;2.42;;;5.60;99.90;;;;;;4952487;29;20390;-44
2023/12/20 03:21:03;;;;;;;2.40;2.20;;;5.60;99.90;;;;;;4962538;28;20041;-44
2023/12/20 03:23:30;;;;;;;1.63;1.52;;;5.70;99.90;;;;;;4971765;28;20058;-44
2023/12/20 03:25:56;;;;;;;1.95;1.85;;;5.70;99.90;;;;;;4971641;28;20059;-45
2023/12/20 03:28:22;;;;;;;2.20;2.10;;;5.70;99.90;;;;;;4971806;28;20102;-42
2023/12/20 03:30:48;;;;;;;2.97;2.50;;;5.80;99.90;;;;;;4971086;28;20069;-47
2023/12/20 03:33:14;;;;;;;2.45;2.25;;;5.70;99.90;;;;;;4971600;28;20065;-46
2023/12/20 03:35:39;;;;;;;2.55;2.35;;;5.80;99.90;;;;;;4955166;28;20019;-44
2023/12/20 03:38:04;;;;;;;1.98;1.88;;;5.80;99.90;;;;;;4971914;28;20030;-43
2023/12/20 03:40:30;;;;;;;1.92;1.83;;;5.80;99.90;;;;;;4971176;28;20037;-40
2023/12/20 03:42:55;;;;;;;3.17;2.20;;;5.90;99.90;;;;;;4971440;28;20482;-41
2023/12/20 03:45:21;;;;;;;3.10;2.85;;;5.70;99.90;;;;;;4971341;28;20498;-44
2023/12/20 03:47:47;;;;;;;2.40;2.20;;;5.80;99.90;;;;;;4970524;28;20035;-45
2023/12/20 03:50:13;;;;;;;2.78;2.53;;;5.80;99.90;;;;;;4970521;28;20034;-46
2023/12/20 03:52:38;;;;;;;2.40;2.20;;;5.90;99.90;;;;;;4971023;28;20486;-44
2023/12/20 03:55:04;;;;;;;4.30;2.00;;;5.80;99.90;;;;;;4971564;28;20077;-40
2023/12/20 03:57:30;;;;;;;2.47;2.28;;;5.90;99.90;;;;;;4971363;28;20085;-45
2023/12/20 03:59:55;;;;;;;3.22;2.25;;;5.90;99.90;;;;;;4971231;28;20103;-46
2023/12/20 04:02:20;;;;;;;2.03;1.75;;;5.90;99.90;;;;;;4970916;28;20434;-46
2023/12/20 04:04:46;;;;;;;2.13;2.03;;;6.00;99.90;;;;;;4971397;28;20031;-43
2023/12/20 04:07:11;;;;;;;1.80;1.70;;;6.10;99.90;;;;;;4971269;28;20034;-43
2023/12/20 04:09:37;;;;;;;2.17;1.98;;;6.00;99.90;;;;;;4970730;28;20037;-44
2023/12/20 04:12:03;;;;;;;2.00;1.90;;;6.00;99.90;;;;;;4970653;28;20027;-47
2023/12/20 04:14:28;;;;;;;1.73;1.63;;;6.00;99.90;;;;;;4970755;28;20027;-44
2023/12/20 04:16:54;;;;;;;1.90;1.80;;;6.00;99.90;;;;;;4970773;28;20476;-44
2023/12/20 04:19:19;;;;;;;1.98;1.88;;;6.10;99.90;;;;;;4970671;28;20035;-44
2023/12/20 04:21:45;;;;;;;1.80;1.70;;;6.10;99.90;;;;;;4970421;28;20027;-45
2023/12/20 04:24:10;;;;;;;1.80;1.70;;;6.00;99.90;;;;;;4952999;28;20019;-44
2023/12/20 04:26:36;;;;;;;2.00;1.90;;;6.00;99.90;;;;;;4953270;28;20551;-47
2023/12/20 04:29:02;;;;;;;1.98;1.88;;;6.10;99.90;;;;;;4970680;28;20470;-48
2023/12/20 04:31:27;;;;;;;3.25;3.00;;;6.10;99.90;;;;;;4969953;28;20039;-44
2023/12/20 04:33:53;;;;;;;1.92;1.83;;;6.20;99.90;;;;;;4970514;28;20035;-43
2023/12/20 04:36:18;;;;;;;2.05;1.95;;;6.10;99.90;;;;;;4970545;28;20486;-46
2023/12/20 04:38:44;;;;;;;2.20;2.10;;;6.20;99.90;;;;;;4970299;28;20101;-43
2023/12/20 04:41:09;;;;;;;1.80;1.70;;;6.10;99.90;;;;;;4970003;28;20038;-47
2023/12/20 04:43:35;;;;;;;2.17;2.08;;;6.10;99.90;;;;;;4970320;28;20412;-46
2023/12/20 04:46:00;;;;;;;2.38;1.83;;;6.10;99.90;;;;;;4953338;28;20525;-42
2023/12/20 04:48:26;;;;;;;2.17;2.08;;;6.20;99.90;;;;;;4970428;28;20037;-43
2023/12/20 04:50:51;;;;;;;2.30;2.10;;;6.20;99.90;;;;;;4952485;28;20446;-50
2023/12/20 04:53:16;;;;;;;1.80;1.70;;;6.30;99.90;;;;;;4970194;28;20026;-43
2023/12/20 04:55:42;;;;;;;1.95;1.85;;;6.10;99.90;;;;;;4970054;28;20059;-47
2023/12/20 04:58:07;;;;;;;1.85;1.75;;;6.20;99.90;;;;;;4952843;28;20019;-49
2023/12/20 05:00:33;;;;;;;1.80;1.70;;;6.00;99.90;;;;;;4969509;28;20375;-45
2023/12/20 05:02:58;;;;;;;1.52;1.42;;;6.00;99.90;;;;;;4970164;28;20031;-44
2023/12/20 05:05:24;;;;;;;1.67;1.55;;;6.00;99.90;;;;;;4969784;28;20418;-47
2023/12/20 05:07:49;;;;;;;2.00;1.60;;;5.90;99.90;;;;;;4970057;28;20031;-45
2023/12/20 05:10:15;;;;;;;2.72;1.88;;;5.90;99.90;;;;;;4970340;28;20539;-47
2023/12/20 05:12:40;;;;;;;1.40;1.30;;;5.80;99.90;;;;;;4969931;28;20023;-47
2023/12/20 05:15:06;;;;;;;3.00;1.50;;;5.80;99.90;;;;;;4970544;28;20109;-49
2023/12/20 05:17:32;;;;;;;2.10;1.63;;;5.80;99.90;;;;;;4970638;28;20031;-45
2023/12/20 05:19:57;;;;;;;2.70;1.83;;;5.80;99.90;;;;;;4952490;28;20103;-44
2023/12/20 05:22:23;;;;;;;1.73;1.30;;;5.80;99.90;;;;;;4969199;28;20077;-43
2023/12/20 05:24:49;;;;;;;1.80;1.63;;;5.80;99.90;;;;;;4970175;28;20031;-45
2023/12/20 05:27:14;;;;;;;1.83;1.55;;;5.90;99.90;;;;;;4969721;28;20038;-46
2023/12/20 05:29:40;;;;;;;1.77;1.65;;;5.90;99.90;;;;;;4969479;28;20153;-45
2023/12/20 05:32:05;;;;;;;1.50;1.40;;;5.80;99.90;;;;;;4969081;28;20031;-45
2023/12/20 05:34:31;;;;;;;3.22;1.85;;;5.90;99.90;;;;;;4969538;28;20090;-45
2023/12/20 05:36:58;;;;;;;5.35;1.40;;;5.80;99.90;;;;;;4969659;28;20027;-44
2023/12/20 05:39:23;;;;;;;2.72;1.70;;;5.80;99.90;;;;;;4969688;28;20031;-43
2023/12/20 05:41:49;;;;;;;2.38;1.38;;;5.80;99.90;;;;;;4969243;28;20371;-45
2023/12/20 05:44:14;;;;;;;1.55;1.45;;;5.80;99.90;;;;;;4969525;28;20030;-49
2023/12/20 05:46:40;;;;;;;4.25;1.50;;;5.80;99.90;;;;;;4969442;28;20059;-43
2023/12/20 05:49:06;;;;;;;4.32;1.70;;;5.70;99.90;;;;;;4969448;28;20076;-42
2023/12/20 05:51:32;;;;;;;5.50;2.25;;;5.70;99.90;;;;;;4969449;28;20327;-45
2023/12/20 05:53:58;;;;;;;7.65;1.40;;;5.70;99.90;;;;;;4970197;28;20015;-44
2023/12/20 05:56:23;;;;;;;3.60;1.67;;;5.70;99.90;;;;;;4952383;28;20516;-47
2023/12/20 05:58:49;;;;;;;7.15;2.13;;;5.70;99.90;;;;;;4969553;28;20027;-45
2023/12/20 06:01:16;;;;;;;2.28;1.23;;;5.80;99.90;;;;;;4969303;28;20038;-42
2023/12/20 06:03:42;;;;;;;1.58;1.27;;;5.90;99.90;;;;;;4951445;28;20026;-43
2023/12/20 06:06:08;;;;;;;7.35;1.60;;;6.00;99.90;;;;;;4950949;28;20393;-46
2023/12/20 06:08:34;;;;;;;1.67;1.35;;;5.90;99.90;;;;;;4935330;28;20043;-45
2023/12/20 06:11:00;;;;;;;5.93;2.03;;;5.80;99.90;;;;;;4949225;28;20119;-45
2023/12/20 06:13:25;;;;;;;1.88;1.55;;;5.80;99.90;;;;;;4935861;28;20110;-47
2023/12/20 06:15:51;;;;;;;2.35;1.50;;;5.70;99.90;;;;;;4953336;28;20491;-43
2023/12/20 06:18:17;;;;;;;3.50;1.48;;;5.80;99.90;;;;;;4953377;29;20077;-44
2023/12/20 06:20:42;;;;;;;3.70;1.90;;;5.70;99.90;;;;;;4952864;28;20437;-46
2023/12/20 06:23:08;;;;;;;2.47;1.63;;;5.60;99.90;;;;;;4953372;28;20111;-47
2023/12/20 06:25:33;;;;;;;4.10;2.92;;;5.70;99.90;;;;;;4953236;28;20027;-46
2023/12/20 06:27:59;;;;;;;2.58;1.42;;;5.60;99.90;;;;;;4936104;28;20031;-44
2023/12/20 06:30:25;;;;;;;4.18;1.80;;;5.50;99.90;;;;;;4959928;23;20144;-50
2023/12/20 06:32:50;;;;;;;3.95;1.50;;;5.50;99.90;;;;;;4972102;28;20478;-52
2023/12/20 06:35:16;;;;;;;5.30;2.28;;;5.50;99.90;;;;;;4965339;28;20081;-48
2023/12/20 06:37:44;;;;;;;3.85;1.73;;;5.40;99.90;;;;;;4936265;28;20026;-50
2023/12/20 06:40:10;;;;;;;5.38;1.77;;;5.50;99.90;;;;;;4953114;29;20437;-50
2023/12/20 06:42:36;;;;;;;3.83;1.48;;;5.50;99.90;;;;;;4953142;29;20530;-50
2023/12/20 06:45:01;;;;;;;5.30;1.60;;;5.40;99.90;;;;;;4953016;29;20111;-49
2023/12/20 06:47:27;;;;;;;6.10;1.60;;;5.40;99.90;;;;;;4952882;29;20031;-51
2023/12/20 06:49:52;;;;;;;6.25;1.80;;;5.40;99.90;;;;;;4935595;29;20042;-49
2023/12/20 06:52:18;;;;;;;7.13;3.22;;;6.20;99.90;;;;;;4952897;29;20423;-51
2023/12/20 06:54:43;;;;;;;7.30;2.75;;;5.30;99.90;;;;;;4953080;29;20023;-54
2023/12/20 06:57:09;;;;;;;4.13;1.58;;;5.30;99.90;;;;;;4952926;29;20028;-52
2023/12/20 06:59:39;;;;;;;4.50;1.70;;;5.20;99.90;;;;;;4935552;29;20035;-46
2023/12/20 07:02:05;;;;;;;5.70;1.58;;;5.20;99.90;;;;;;4952768;28;20035;-51
2023/12/20 07:04:31;;;;;;;3.92;1.92;;;5.20;99.90;;;;;;4952579;29;20118;-55
2023/12/20 07:06:59;;;;;;;5.70;1.65;;;5.20;99.90;;;;;;4952749;29;20023;-51
2023/12/20 07:09:26;;;;;;;3.60;1.33;;;5.10;99.90;;;;;;4952390;29;20394;-48
2023/12/20 07:11:51;;;;;;;3.00;1.42;;;5.20;99.90;;;;;;4935089;28;20326;-51
2023/12/20 07:14:17;;;;;;;3.80;1.83;;;5.20;99.90;;;;;;4952522;29;20031;-54
2023/12/20 07:16:42;;;;;;;5.25;1.50;;;5.20;99.90;;;;;;4952543;29;20426;-55
2023/12/20 07:19:08;;;;;;;5.22;1.85;;;5.20;99.90;;;;;;4935523;28;20023;-53
2023/12/20 07:21:34;;;;;;;5.20;1.50;;;5.20;99.90;;;;;;4934997;29;20031;-53
2023/12/20 07:23:59;;;;;;;7.45;2.58;;;5.30;99.90;;;;;;4952146;29;20110;-48
2023/12/20 07:26:25;;;;;;;8.18;1.65;;;5.20;99.90;;;;;;4952217;29;20118;-54
2023/12/20 07:28:50;;;;;;;3.78;1.52;;;5.20;99.90;;;;;;4952256;29;20434;-55
2023/12/20 07:31:16;;;;;;;4.35;1.95;;;5.20;99.90;;;;;;4951570;29;20039;-49
2023/12/20 07:33:42;;;;;;;4.97;1.70;;;5.20;99.90;;;;;;4952286;29;20082;-51
2023/12/20 07:36:07;;;;;;;3.45;1.50;;;5.30;99.90;;;;;;4935371;28;20050;-52
2023/12/20 07:38:33;;;;;;;4.80;1.98;;;5.20;99.90;;;;;;4952228;29;20035;-50
2023/12/20 07:40:59;;;;;;;6.43;1.50;;;5.30;99.90;;;;;;4951851;29;20441;-53
2023/12/20 07:43:24;;;;;;;6.40;1.98;;;5.30;99.90;;;;;;4952200;29;20510;-51
2023/12/20 07:45:50;;;;;;;11.93;2.85;;;5.40;99.90;;;;;;4952183;29;20036;-52
2023/12/20 07:48:15;;;;;;;7.10;2.03;;;5.40;99.90;;;;;;4952006;29;20031;-50
2023/12/20 07:50:42;;;;;;;7.90;1.45;;;5.40;99.90;;;;;;4934553;29;20035;-56
2023/12/20 07:53:07;;;;;;;5.95;1.95;;;5.50;99.90;;;;;;4952094;29;20371;-49
2023/12/20 07:55:33;;;;;;;2.33;1.77;;;5.50;99.90;;;;;;4951806;29;20035;-58
2023/12/20 07:57:59;;;;;;;4.40;1.55;;;5.40;99.90;;;;;;4934555;28;20031;-60
2023/12/20 08:00:24;;;;;;;3.35;1.60;;;5.50;99.90;;;;;;4958111;28;20034;-49
2023/12/20 08:02:50;;;;;;;4.97;1.60;;;5.50;99.90;;;;;;4971027;28;20026;-49
2023/12/20 08:05:15;;;;;;;4.95;2.00;;;5.40;99.90;;;;;;4970946;28;20208;-53
2023/12/20 08:07:41;;;;;;;9.98;1.60;;;5.40;99.90;;;;;;4953789;28;20027;-50
2023/12/20 08:10:07;;;;;;;1.95;1.30;;;5.40;99.90;;;;;;4970757;28;20085;-50
2023/12/20 08:12:33;;;;;;;5.72;1.98;;;5.40;99.90;;;;;;4953928;28;20030;-48
2023/12/20 08:14:59;;;;;;;6.57;2.13;;;5.50;99.90;;;;;;4957288;28;20023;-49
2023/12/20 08:17:24;;;;;;;7.40;1.80;;;5.50;99.90;;;;;;4954256;28;20046;-54
2023/12/20 08:19:51;;;;;;;12.00;2.20;;;5.60;99.90;;;;;;4953531;28;20371;-49
2023/12/20 08:22:16;;;;;;;5.93;1.20;;;5.70;99.90;;;;;;4945081;28;20448;-52
2023/12/20 08:24:42;;;;;;;6.03;1.60;;;5.80;99.90;;;;;;4952730;28;20026;-53
2023/12/20 08:27:09;;;;;;;3.22;1.33;;;5.80;99.90;;;;;;4954548;28;20031;-53
2023/12/20 08:29:34;;;;;;;4.85;1.70;;;5.90;99.90;;;;;;4970808;28;20061;-54
2023/12/20 08:32:00;;;;;;;5.35;2.13;;;5.90;99.90;;;;;;4966201;28;20490;-54
2023/12/20 08:34:26;;;;;;;3.33;2.05;;;5.90;99.90;;;;;;4958767;28;20109;-54
2023/12/20 08:36:51;;;;;;;2.40;1.80;;;5.90;99.90;;;;;;4951194;29;20027;-52
2023/12/20 08:39:17;;;;;;;4.95;1.50;;;6.10;99.90;;;;;;4934259;29;20023;-53
2023/12/20 08:41:43;;;;;;;7.97;1.90;;;5.90;99.90;;;;;;4950744;29;20039;-56
2023/12/20 08:44:09;;;;;;;2.45;1.40;;;6.00;99.90;;;;;;4951227;29;20125;-51
2023/12/20 08:46:35;;;;;;;5.68;1.77;;;6.20;99.90;;;;;;4934114;29;20031;-50
2023/12/20 08:49:01;;;;;;;11.90;3.20;;;6.10;99.90;;;;;;4934116;29;20031;-51
2023/12/20 08:51:26;;;;;;;4.85;1.50;;;6.10;99.90;;;;;;4951047;29;20394;-53
2023/12/20 08:53:52;;;;;;;3.90;1.58;;;6.10;99.90;;;;;;4934062;29;20040;-51
2023/12/20 08:56:17;;;;;;;7.97;2.13;;;6.20;99.90;;;;;;4951277;29;20039;-52
2023/12/20 08:58:44;;;;;;;8.63;2.92;;;6.20;99.90;;;;;;4951156;29;20030;-51
2023/12/20 09:01:10;;;;;;;4.50;1.70;;;6.20;99.90;;;;;;4950489;29;20552;-53
2023/12/20 09:03:35;;;;;;;8.98;2.53;;;6.20;99.90;;;;;;4951242;29;20032;-51
2023/12/20 09:06:01;;;;;;;9.10;1.85;;;6.20;99.90;;;;;;4933973;29;20072;-52
2023/12/20 09:08:26;;;;;;;3.05;1.63;;;6.30;99.90;;;;;;4933856;29;20398;-54
2023/12/20 09:10:52;;;;;;;6.80;2.00;;;6.30;99.90;;;;;;4950450;29;20110;-56
2023/12/20 09:13:17;;;;;;;5.78;2.38;;;6.30;99.90;;;;;;4950893;29;20035;-52
2023/12/20 09:15:43;;;;;;;5.57;2.00;;;6.40;99.90;;;;;;4951736;28;20198;-49
2023/12/20 09:18:08;;;;;;;6.50;2.25;;;6.40;99.90;;;;;;4944013;29;20046;-54
2023/12/20 09:20:34;;;;;;;4.35;1.90;;;6.50;99.90;;;;;;4950244;29;20046;-53
2023/12/20 09:23:00;;;;;;;4.57;1.90;;;6.50;99.90;;;;;;4965227;28;20030;-55
2023/12/20 09:25:26;;;;;;;3.20;1.70;;;6.50;99.90;;;;;;4969958;28;20514;-52
2023/12/20 09:27:52;;;;;;;5.43;1.95;;;6.50;99.90;;;;;;4964686;28;20032;-51
2023/12/20 09:30:18;;;;;;;9.85;2.60;;;6.60;99.90;;;;;;4932856;29;20495;-46
2023/12/20 09:32:43;;;;;;;4.78;2.05;;;6.70;99.90;;;;;;4956833;28;20041;-49
2023/12/20 09:35:09;;;;;;;4.78;2.33;;;6.80;99.90;;;;;;4969807;28;20023;-53
2023/12/20 09:37:34;;;;;;;3.08;1.40;;;6.80;99.90;;;;;;4970196;28;20023;-52
2023/12/20 09:40:00;;;;;;;7.03;1.92;;;6.90;99.90;;;;;;4969761;28;20035;-55
2023/12/20 09:42:39;;;;;;;11.20;3.15;;;7.00;99.90;;;;;;4952573;28;20477;-52
2023/12/20 09:45:08;;;;;;;5.75;2.38;;;7.00;99.90;;;;;;4944774;29;20035;-53
2023/12/20 09:47:34;;;;;;;7.43;2.00;;;7.00;99.90;;;;;;4952921;28;20042;-51
2023/12/20 09:50:00;;;;;;;4.03;1.33;;;7.00;99.90;;;;;;4953979;29;20577;-53
2023/12/20 09:52:26;;;;;;;5.18;2.53;;;7.20;99.90;;;;;;4954262;29;20363;-53
2023/12/20 09:54:53;;;;;;;8.85;2.78;;;7.40;99.90;;;;;;4954398;29;20227;-54
2023/12/20 09:57:18;;;;;;;8.10;2.33;;;7.50;99.90;;;;;;4953712;29;20027;-51
2023/12/20 09:59:44;;;;;;;5.72;1.95;;;7.60;99.90;;;;;;4953770;29;20497;-51
2023/12/20 10:02:14;;;;;;;10.63;2.30;;;7.60;99.90;;;;;;4953554;29;20079;-51
2023/12/20 10:04:46;;;;;;;7.03;2.10;;;7.70;99.90;;;;;;4936332;28;20124;-55
2023/12/20 10:07:11;;;;;;;5.43;1.63;;;7.70;99.90;;;;;;4952422;28;20123;-53
2023/12/20 10:09:37;;;;;;;6.40;2.58;;;7.60;99.90;;;;;;4970210;28;20034;-51
2023/12/20 10:12:05;;;;;;;12.90;2.30;;;7.60;99.90;;;;;;4955099;28;20042;-52
2023/12/20 10:14:32;;;;;;;10.88;3.25;;;7.50;99.90;;;;;;4953944;28;20114;-51
2023/12/20 10:17:04;;;;;;;8.25;1.42;;;7.60;99.90;;;;;;4954943;28;20062;-51
2023/12/20 10:19:30;;;;;;;8.55;1.85;;;7.60;99.90;;;;;;4943305;29;20042;-53
2023/12/20 10:21:57;;;;;;;6.63;2.28;;;7.60;99.90;;;;;;4953289;29;20478;-52
2023/12/20 10:24:22;;;;;;;3.38;1.98;;;7.60;99.90;;;;;;4953668;29;20074;-51
2023/12/20 10:27:00;;;;;;;8.23;2.10;;;7.70;99.90;;;;;;4937135;29;20417;-54
2023/12/20 10:29:26;;;;;;;7.93;2.05;;;7.90;99.90;;;;;;4953473;29;20031;-51
2023/12/20 10:31:57;;;;;;;6.07;1.80;;;8.20;99.90;;;;;;4953070;28;20027;-52
2023/12/20 10:34:22;;;;;;;8.25;2.78;;;8.40;99.90;;;;;;4965153;28;20054;-52
2023/12/20 10:36:48;;;;;;;6.97;1.90;;;8.50;99.90;;;;;;4968140;28;20035;-53
2023/12/20 10:39:15;;;;;;;9.77;1.88;;;8.60;99.90;;;;;;4964044;28;20367;-48
2023/12/20 10:41:42;;;;;;;4.35;1.75;;;8.80;99.90;;;;;;4964733;28;20030;-48
2023/12/20 10:44:10;;;;;;;6.72;1.83;;;8.80;99.90;;;;;;4957102;28;20019;-52
2023/12/20 10:46:36;;;;;;;4.93;1.95;;;8.60;99.90;;;;;;4953464;29;20125;-52
2023/12/20 10:49:04;;;;;;;3.53;1.60;;;8.40;99.90;;;;;;4958379;28;20116;-51
2023/12/20 10:51:31;;;;;;;4.68;1.73;;;8.20;99.90;;;;;;4944743;28;20039;-51
2023/12/20 10:53:56;;;;;;;7.10;2.35;;;8.00;99.90;;;;;;4958605;28;20483;-49
2023/12/20 10:56:26;;;;;;;6.68;2.33;;;7.80;99.90;;;;;;4953811;29;20042;-48
2023/12/20 10:58:51;;;;;;;14.75;3.03;;;7.70;99.90;;;;;;4958232;28;20474;-51
2023/12/20 11:01:18;;;;;;;9.07;2.63;;;7.60;99.90;;;;;;4971680;28;20049;-48
2023/12/20 11:03:51;;;;;;;6.97;1.95;;;7.50;99.90;;;;;;4972581;28;20030;-53
2023/12/20 11:06:36;;;;;;;9.85;1.80;;;7.50;99.90;;;;;;4959251;28;20034;-52
2023/12/20 11:09:33;;;;;;;6.90;1.95;;;7.40;99.90;;;;;;4953108;29;20097;-48
2023/12/20 11:12:18;;;;;;;8.23;3.40;;;7.40;99.90;;;;;;4952748;29;20047;-50
2023/12/20 11:14:47;;;;;;;5.82;2.53;;;7.40;99.90;;;;;;4936989;29;20490;-49
2023/12/20 11:17:16;;;;;;;6.03;2.00;;;7.40;99.90;;;;;;4956231;28;20398;-56
2023/12/20 11:19:57;;;;;;;8.07;2.40;;;7.40;99.90;;;;;;4969932;28;20057;-47
2023/12/20 11:22:27;;;;;;;8.45;2.72;;;7.40;99.90;;;;;;4954776;28;20530;-57
2023/12/20 11:24:55;;;;;;;7.70;1.90;;;7.50;99.90;;;;;;4954693;28;20031;-52
2023/12/20 11:27:21;;;;;;;8.10;2.85;;;7.40;99.90;;;;;;4957739;28;20093;-51
2023/12/20 11:29:54;;;;;;;8.80;1.88;;;7.60;99.90;;;;;;4961649;28;20055;-48
2023/12/20 11:32:28;;;;;;;9.50;3.22;;;7.60;99.90;;;;;;4962118;28;20075;-51
2023/12/20 11:35:18;;;;;;;4.55;1.80;;;7.70;99.90;;;;;;4952508;29;20023;-51
2023/12/20 11:37:47;;;;;;;6.72;1.80;;;7.80;99.90;;;;;;4952521;29;20030;-50
2023/12/20 11:40:17;;;;;;;6.25;1.75;;;7.80;99.90;;;;;;4967140;28;20031;-52
2023/12/20 11:42:49;;;;;;;6.65;1.88;;;7.90;99.90;;;;;;4950935;28;20082;-48
2023/12/20 11:45:21;;;;;;;4.75;2.13;;;7.90;99.90;;;;;;4965563;28;20042;-49
2023/12/20 11:47:49;;;;;;;9.35;2.30;;;7.90;99.90;;;;;;4971287;28;20366;-52
2023/12/20 11:50:15;;;;;;;15.70;1.95;;;7.90;99.90;;;;;;4951691;28;20031;-48
2023/12/20 11:52:41;;;;;;;7.38;1.90;;;7.90;99.90;;;;;;4969226;28;20397;-54
2023/12/20 11:55:06;;;;;;;10.60;2.42;;;8.00;99.90;;;;;;4971209;28;20035;-49
2023/12/20 11:57:33;;;;;;;10.85;1.63;;;7.90;99.90;;;;;;4958781;28;20027;-56
2023/12/20 11:59:59;;;;;;;8.75;2.58;;;8.10;99.90;;;;;;4952786;28;20027;-53
2023/12/20 12:02:24;;;;;;;6.00;2.10;;;7.90;99.90;;;;;;4956899;28;20118;-54
2023/12/20 12:04:53;;;;;;;4.40;1.75;;;7.80;99.90;;;;;;4964471;28;20031;-50
2023/12/20 12:07:18;;;;;;;10.15;2.45;;;7.90;99.90;;;;;;4958335;28;20486;-56
2023/12/20 12:09:45;;;;;;;5.75;1.92;;;7.90;99.90;;;;;;4935811;29;20031;-54
2023/12/20 12:12:12;;;;;;;4.50;2.20;;;7.90;99.90;;;;;;4956853;28;20031;-53
2023/12/20 12:14:40;;;;;;;8.48;2.50;;;7.90;99.90;;;;;;4961764;28;20031;-52
2023/12/20 12:17:13;;;;;;;7.05;1.67;;;7.90;99.90;;;;;;4935786;28;20035;-54
2023/12/20 12:19:42;;;;;;;10.40;2.58;;;7.90;99.90;;;;;;4951945;29;20023;-56
2023/12/20 12:22:12;;;;;;;6.78;2.15;;;7.80;99.90;;;;;;4952934;28;20024;-53
2023/12/20 12:24:39;;;;;;;4.50;1.77;;;7.80;99.90;;;;;;4952176;29;20047;-54
2023/12/20 12:27:08;;;;;;;7.72;1.95;;;7.80;99.90;;;;;;4956916;28;20026;-50
2023/12/20 12:29:34;;;;;;;9.65;2.13;;;7.90;99.90;;;;;;4951724;28;20035;-56
2023/12/20 12:32:00;;;;;;;7.78;2.50;;;8.00;99.90;;;;;;4973067;22;20062;-47
2023/12/20 12:34:29;;;;;;;4.60;2.33;;;8.00;99.90;;;;;;4970208;28;20398;-50
2023/12/20 12:36:55;;;;;;;7.53;1.90;;;8.00;99.90;;;;;;4952778;28;20023;-49
2023/12/20 12:39:20;;;;;;;2.95;1.48;;;8.10;99.90;;;;;;4970027;28;20030;-54
2023/12/20 12:41:46;;;;;;;9.93;2.58;;;8.10;99.90;;;;;;4965157;28;20034;-45
2023/12/20 12:44:11;;;;;;;7.10;1.80;;;8.10;99.90;;;;;;4948956;29;20031;-45
2023/12/20 12:46:37;;;;;;;26.40;9.65;;;8.00;99.90;;;;;;4933881;29;20035;-45
2023/12/20 12:49:03;;;;;;;7.82;4.22;;;8.00;99.90;;;;;;4950628;29;20151;-43
2023/12/20 12:51:29;;;;;;;6.63;3.10;;;8.00;99.90;;;;;;4950520;29;20047;-48